Easterwood Field College Station US
ICAO: KCLL
IATA: CLL
Category: Medium
Scheduled Services: Yes

Elevation: 320 ft
TransAlt. 18000 ft.

Airport Communications:
ATIS:126.85
HOUSTON CNTR:120.4
CTAF:118.5
GND:128.7
MONTGOMERY CO RDO:122.2
TWR:118.5
UNICOM:122.95

KCLL Zoom In..

If you have problems with the map follow the link
https://www.worldairports.se/pages/airport.php?
ICAO=KCLL

Runways:

(A) RW 04 length 5150 ft width 150 ft
---- / hdg 44

(B) RW 10 length 5158 ft width 150 ft
---- / hdg 103

(C) RW 16 length 7000 ft width 146 ft
---- / hdg 163

(D) RW 22 length 5150 ft width 150 ft
---- / hdg 224

(E) RW 28 length 5158 ft width 150 ft
---- / hdg 283

(F) RW 34 length 7000 ft width 146 ft
ILS 111.70 / hdg 343

Location; KCLL
Day. 06 / Time. 11.53 Zulu
* Altimeter: 30.05
* Temperature: 18° c. 64.4°f.
* Wind from: 270° Speed 10 kn.
Dewpoint: 17° c.
Visibility: 8 Statute Miles.
Clouds: Clear (automated report).

KCLL 061153Z AUTO 27010KT 8SM CLR 18/17 A3005 RMK AO2 SLP172 T01830167 10200 20178 51014


Wind From 270°
Speed 10 kn.

 
 
jpsmedia worldairports.se 2019   terms of use